CheckWX is a tool to help pilots better visualize weather data.  It is not intended as a substitute for an official pre-flight weather briefing.

17:28:29 UTC

EKRK METAR
Copenhagen Roskilde Airport
Copenhagen, Denmark
Current

38 mins ago

EKRK 241650Z 25010KT CAVOK 08/M02 Q1018
Observed
Mar-24 @ 16:50 UTC
Wind
  • 250° at 10 KTS
Visibility
10,000+ meters
Flight Rules
VFR
Cloud Levels
  • Clear skies
Temperature
C / 46°F
Dewpoint
-2°C / 28°F
Humidity
50%
Altimeter
30.06" Hg
Pressure
1017.92 hPa
Previous

1 hour ago

EKRK 241620Z 26010KT CAVOK 08/M01 Q1018
Observed
Mar-24 @ 16:20 UTC
Wind
  • 260° at 10 KTS
Visibility
10,000+ meters
Flight Rules
VFR
Cloud Levels
  • Clear skies
Temperature
C / 46°F
Dewpoint
-1°C / 30°F
Humidity
53%
Altimeter
30.06" Hg
Pressure
1017.92 hPa
Previous

2 hours ago

EKRK 241551Z 25010KT CAVOK 08/M00 Q1019
Observed
Mar-24 @ 15:51 UTC
Wind
  • 250° at 10 KTS
Visibility
10,000+ meters
Flight Rules
VFR
Cloud Levels
  • Clear skies
Temperature
C / 46°F
Dewpoint
C / 32°F
Humidity
57%
Altimeter
30.09" Hg
Pressure
1018.92 hPa